CheckWX is a tool to help pilots better visualize weather data.  It is not intended as a substitute for an official pre-flight weather briefing.

12:22:53 UTC

KHYR METAR
Sawyer County Airport
Hayward, Wisconsin, USA
Current

30 mins ago

KHYR 181153Z AUTO 00000KT 10SM OVC013 M23/M26 A3030 RMK AO2 SLP296 I6000 T12281256 11156 21233 53021
Observed
Feb-18 @ 11:53 UTC
Visibility
10 SM
Flight Rules
MVFR
Cloud Levels
  • Overcast at 1,300' AGL
Temperature
-23°C / -9°F
Dewpoint
-26°C / -15°F
Humidity
77%
Altimeter
30.3" Hg
Pressure
1029.6 hPa
Previous

44 mins ago

KHYR 181139Z AUTO 00000KT 10SM BKN013 M23/M26 A3030 RMK AO2 T12281256
Observed
Feb-18 @ 11:39 UTC
Visibility
10 SM
Flight Rules
MVFR
Cloud Levels
  • Broken at 1,300' AGL
Temperature
-23°C / -9°F
Dewpoint
-26°C / -15°F
Humidity
77%
Altimeter
30.3" Hg
Pressure
1026.12 hPa
Previous

1 hour ago

KHYR 181053Z AUTO 00000KT 10SM FEW013 M23/M26 A3028 RMK AO2 SLP288 T12281256
Observed
Feb-18 @ 10:53 UTC
Visibility
10 SM
Flight Rules
VFR
Cloud Levels
  • Few at 1,300' AGL
Temperature
-23°C / -9°F
Dewpoint
-26°C / -15°F
Humidity
77%
Altimeter
30.28" Hg
Pressure
1028.8 hPa